Latest Weather Observations for Albion Park

IDN60801

Issued at 3:05 pm EST Monday 29 August 2016 (issued every 30 minutes, with the page automatically refreshed every 10 minutes)

About weather observations | Map of weather stations | Latest weather observations for NSW | Other Formats
Station Details ID: 068241 Name: WOLLONGONG AIRPORT Lat: -34.56 Lon: 150.79 Height: 8.0 m
Data from the previous 72 hours. | See also: Recent months at Albion Park
Date/Time
EST
Temp
°C
App
Temp
°C
Dew
Point
°C
Rel
Hum
%
Delta-T
°C
Wind Press
QNH
hPa
Press
MSL
hPa
Rain since
9am
mm
Dir  Spd
km/h
Gust
km/h
Spd
kts
Gust
kts
29/03:00pm 17.8 14.9 8.1 53 4.9 NE 13 17 7 9 1024.9 1024.9 0.0
29/02:30pm 17.7 14.4 8.0 53 4.9 NE 15 17 8 9 1025.1 1025.1 0.0
29/02:00pm 18.1 14.2 7.2 49 5.4 NE 17 20 9 11 1024.7 1024.7 0.0
29/01:30pm 18.8 15.1 4.2 38 6.9 ENE 13 17 7 9 1024.7 1024.7 0.0
29/01:00pm 18.5 14.9 5.0 41 6.5 NE 13 17 7 9 1025.0 1025.0 0.0
29/12:30pm 18.7 14.8 5.5 42 6.4 NE 15 19 8 10 1025.2 1025.2 0.0
29/12:00pm 18.7 14.7 4.8 40 6.7 NE 15 19 8 10 1025.3 1025.3 0.0
29/11:30am 18.6 15.0 4.8 40 6.6 ENE 13 19 7 10 1025.8 1025.8 0.0
29/11:00am 18.8 15.6 3.0 35 7.3 NNE 9 13 5 7 1026.3 1026.3 0.0
29/10:30am 17.5 14.5 4.1 41 6.3 NE 9 13 5 7 1026.6 1026.6 0.0
29/10:00am 18.4 16.2 6.3 45 5.9 SW 7 9 4 5 1026.7 1026.7 0.0
29/09:30am 18.5 17.7 6.7 46 5.9 CALM 0 6 0 3 1026.7 1026.7 0.0
29/09:00am 16.2 14.6 7.9 58 4.1 SW 6 7 3 4 1026.9 1026.9 0.0
29/08:30am 14.8 13.2 8.1 64 3.4 SW 6 7 3 4 1026.6 1026.6 0.0
29/08:00am 12.3 10.9 9.0 80 1.6 SW 6 9 3 5 1026.4 1026.4 0.0
29/07:30am 9.0 7.2 7.3 89 0.8 SW 6 7 3 4 1026.1 1026.1 0.0
29/07:00am 6.9 4.8 5.7 92 0.5 SW 6 9 3 5 1025.7 1025.7 0.0
29/06:30am 6.2 3.3 4.8 91 0.6 SW 9 11 5 6 1024.9 1024.9 0.0
29/06:00am 5.8 3.2 4.4 91 0.6 SW 7 9 4 5 1024.8 1024.8 0.0
29/05:30am 6.8 4.4 5.1 89 0.7 SW 7 9 4 5 1024.5 1024.5 0.0
29/05:00am 6.4 3.9 5.0 91 0.6 SW 7 11 4 6 1024.3 1024.3 0.0
29/04:30am 5.8 3.8 4.6 92 0.5 SW 4 9 2 5 1023.8 1023.8 0.0
29/04:00am 6.0 3.5 4.5 90 0.6 SW 7 9 4 5 1023.6 1023.6 0.0
29/03:30am 6.4 3.5 4.7 89 0.7 SW 9 11 5 6 1023.5 1023.5 0.0
29/03:00am 5.8 4.2 4.3 90 0.6 WSW 2 6 1 3 1023.3 1023.3 0.0
29/02:30am 6.9 5.0 4.9 87 0.9 WSW 4 9 2 5 1023.3 1023.3 0.0
29/02:00am 7.6 6.1 5.2 85 1.1 WSW 2 9 1 5 1023.4 1023.4 0.0
29/01:30am 7.0 5.2 5.3 89 0.8 WSW 4 9 2 5 1023.4 1023.4 0.0
29/01:00am 7.0 5.1 5.0 87 0.9 WSW 4 9 2 5 1023.3 1023.3 0.0
29/12:30am 7.5 5.3 5.1 85 1.1 WSW 6 9 3 5 1023.1 1023.1 0.0
29/12:00am 8.1 6.7 5.7 85 1.1 WSW 2 7 1 4 1023.0 1023.0 0.0
 
Date/Time
EST
Temp
°C
App
Temp
°C
Dew
Point
°C
Rel
Hum
%
Delta-T
°C
Wind Press
QNH
hPa
Press
MSL
hPa
Rain since
9am
mm
Dir  Spd
km/h
Gust
km/h
Spd
kts
Gust
kts
28/11:30pm 8.9 6.7 6.2 83 1.2 WSW 7 9 4 5 1022.9 1022.9 0.0
28/11:00pm 8.7 7.5 6.3 85 1.1 WSW 2 9 1 5 1022.7 1022.7 0.0
28/10:30pm 8.2 6.5 6.0 86 1.0 WSW 4 6 2 3 1023.1 1023.1 0.0
28/10:00pm 8.8 6.3 6.4 85 1.1 WSW 9 11 5 6 1023.1 1023.1 0.0
28/09:30pm 7.2 5.8 5.5 89 0.8 WSW 2 7 1 4 1023.3 1023.3 0.0
28/09:00pm 7.9 6.1 5.5 85 1.1 WSW 4 7 2 4 1023.1 1023.1 0.0
28/08:30pm 8.1 5.8 5.7 85 1.1 WSW 7 9 4 5 1023.1 1023.1 0.0
28/08:00pm 8.3 6.0 5.6 83 1.2 WSW 7 9 4 5 1023.0 1023.0 0.0
28/07:30pm 9.4 7.1 5.9 79 1.6 WSW 7 9 4 5 1022.8 1022.8 0.0
28/07:00pm 9.5 7.2 5.7 77 1.7 WSW 7 13 4 7 1022.5 1022.5 0.0
28/06:30pm 11.2 9.0 6.3 72 2.3 WSW 7 9 4 5 1022.2 1022.2 0.0
28/06:00pm 11.9 9.5 5.3 64 3.0 WSW 7 11 4 6 1021.8 1021.8 0.0
28/05:30pm 14.3 11.8 6.4 59 3.8 WSW 9 13 5 7 1021.4 1021.4 0.0
28/05:00pm 17.5 15.3 5.4 45 5.8 WSW 6 11 3 6 1021.1 1021.1 0.0
28/04:30pm 17.5 13.1 4.5 42 6.2 W 17 22 9 12 1020.8 1020.8 0.0
28/04:00pm 17.8 12.7 4.0 40 6.5 W 20 30 11 16 1020.6 1020.6 0.0
28/03:30pm 17.9 11.9 3.4 38 6.7 W 24 35 13 19 1020.6 1020.6 0.0
28/03:00pm 18.3 11.5 3.0 36 7.1 WSW 28 35 15 19 1020.6 1020.6 0.0
28/02:30pm 18.4 11.5 2.7 35 7.2 WSW 28 37 15 20 1020.5 1020.5 0.0
28/02:00pm 19.1 14.1 4.5 38 7.0 W 20 24 11 13 1020.4 1020.4 0.0
28/01:30pm 18.6 14.0 3.6 37 7.0 W 17 24 9 13 1020.5 1020.5 0.0
28/01:00pm 18.5 12.4 5.0 41 6.5 W 26 32 14 17 1020.5 1020.5 0.0
28/12:30pm 18.7 15.3 4.1 38 6.9 SSW 11 19 6 10 1020.9 1020.9 0.0
28/12:00pm 18.0 14.9 3.5 38 6.7 S 9 20 5 11 1020.9 1020.9 0.0
28/11:30am 18.0 13.4 3.9 39 6.6 SW 17 26 9 14 1021.4 1021.4 0.0
28/11:00am 17.4 13.1 3.0 38 6.6 SW 15 24 8 13 1021.8 1021.8 0.0
28/10:30am 17.1 11.7 2.7 38 6.6 WSW 20 32 11 17 1022.2 1022.2 0.0
28/10:00am 17.0 10.6 3.3 40 6.3 WSW 26 33 14 18 1021.9 1021.9 0.0
28/09:30am 15.9 9.0 2.7 41 6.0 WSW 28 33 15 18 1022.1 1022.1 0.0
28/09:00am 15.1 8.8 3.6 46 5.2 WSW 26 37 14 20 1022.1 1022.1 0.0
28/08:30am 14.3 8.9 2.5 45 5.2 W 20 28 11 15 1022.0 1022.0 0.0
28/08:00am 13.6 10.2 1.9 45 5.1 SW 9 24 5 13 1022.2 1022.2 0.0
28/07:30am 12.4 5.9 2.6 51 4.3 W 26 39 14 21 1021.4 1021.4 0.0
28/07:00am 12.0 5.4 1.9 50 4.3 W 26 39 14 21 1021.3 1021.3 0.0
28/06:32am 12.0 4.6 1.6 49 4.4 WSW 30 48 16 26 1020.9 1020.9 0.0
28/06:30am 11.6 4.9 1.5 50 4.3 WSW 26 44 14 24 1021.0 1021.0 0.0
28/06:13am 11.4 5.3 2.7 55 3.8 WSW 24 43 13 23 1021.0 1021.0 0.0
28/06:00am 7.2 3.3 0.9 64 2.5 SSW 11 20 6 11 1020.8 1020.8 0.0
28/05:30am 9.0 3.5 0.7 56 3.4 WSW 19 32 10 17 1020.1 1020.1 0.0
28/05:00am 11.1 4.0 1.4 51 4.1 WSW 28 41 15 22 1019.8 1019.8 0.0
28/04:44am 11.0 3.3 2.1 54 3.8 WSW 32 50 17 27 1019.8 1019.8 0.0
28/04:30am 10.9 2.3 2.5 56 3.6 WSW 37 52 20 28 1019.6 1019.6 0.0
28/04:12am 11.1 4.1 2.2 54 3.8 WSW 28 46 15 25 1019.5 1019.5 0.0
28/04:00am 11.5 5.5 1.2 49 4.3 WSW 22 35 12 19 1019.6 1019.6 0.0
28/03:30am 11.3 3.4 2.3 54 3.9 WSW 33 46 18 25 1019.4 1019.4 0.0
28/03:18am 11.6 3.7 2.4 53 4.0 WSW 33 54 18 29 1019.4 1019.4 0.0
28/03:00am 11.5 4.6 2.3 53 3.9 W 28 44 15 24 1019.8 1019.8 0.0
28/02:30am 11.0 3.4 2.8 57 3.5 W 32 44 17 24 1020.1 1020.1 0.0
28/02:00am 11.1 5.3 2.4 55 3.7 W 22 32 12 17 1020.3 1020.3 0.0
28/01:33am 11.7 4.0 2.5 53 4.0 W 32 50 17 27 1020.7 1020.7 0.0
28/01:30am 11.2 3.3 2.5 55 3.7 WSW 33 50 18 27 1020.6 1020.6 0.0
28/01:00am 11.2 4.0 2.8 56 3.6 W 30 39 16 21 1020.4 1020.4 0.0
28/12:30am 11.5 4.2 2.5 54 3.9 WSW 30 44 16 24 1020.8 1020.8 0.0
28/12:00am 11.3 5.6 2.9 56 3.6 W 22 35 12 19 1021.1 1021.1 0.0
 
Date/Time
EST
Temp
°C
App
Temp
°C
Dew
Point
°C
Rel
Hum
%
Delta-T
°C
Wind Press
QNH
hPa
Press
MSL
hPa
Rain since
9am
mm
Dir  Spd
km/h
Gust
km/h
Spd
kts
Gust
kts
27/11:30pm 11.5 5.1 3.0 56 3.7 W 26 30 14 16 1021.1 1021.1 0.0
27/11:00pm 11.5 5.4 3.0 56 3.7 WSW 24 32 13 17 1021.2 1021.2 0.0
27/10:30pm 12.1 6.1 3.1 54 4.0 W 24 39 13 21 1021.1 1021.1 0.0
27/10:00pm 11.7 6.1 3.5 57 3.6 W 22 32 12 17 1021.4 1021.4 0.0
27/09:30pm 12.0 6.5 3.8 57 3.7 WSW 22 32 12 17 1021.4 1021.4 0.0
27/09:00pm 12.6 6.6 3.3 53 4.1 W 24 32 13 17 1021.4 1021.4 0.0
27/08:30pm 12.8 6.8 3.5 53 4.2 W 24 32 13 17 1021.1 1021.1 0.0
27/08:00pm 11.9 7.2 3.2 55 3.8 WSW 17 20 9 11 1021.2 1021.2 0.0
27/07:30pm 12.3 7.1 2.7 52 4.2 WSW 19 26 10 14 1021.0 1021.0 0.0
27/07:00pm 11.7 8.1 3.2 56 3.7 WSW 11 17 6 9 1020.6 1020.6 0.0
27/06:30pm 12.2 9.4 2.9 53 4.1 W 7 13 4 7 1020.3 1020.3 0.0
27/06:00pm 13.3 10.0 2.5 48 4.7 W 9 11 5 6 1019.9 1019.9 0.0
27/05:30pm 14.1 10.0 2.4 45 5.2 W 13 17 7 9 1019.6 1019.6 0.0
27/05:00pm 16.9 12.1 0.5 33 7.1 W 15 20 8 11 1019.6 1019.6 0.0
27/04:30pm 18.0 15.2 1.9 34 7.3 ENE 6 11 3 6 1019.5 1019.5 0.0
27/04:00pm 17.4 13.3 6.0 47 5.5 NE 17 22 9 12 1019.4 1019.4 0.0
27/03:30pm 17.6 13.4 5.9 46 5.7 ENE 17 22 9 12 1019.5 1019.5 0.0
27/03:00pm 17.9 12.8 4.1 40 6.5 NE 20 24 11 13 1019.5 1019.5 0.0
27/02:30pm 17.8 12.8 4.7 42 6.2 NE 20 26 11 14 1019.7 1019.7 0.0
27/02:00pm 18.2 13.8 2.5 35 7.2 NE 15 22 8 12 1019.9 1019.9 0.0
27/01:30pm 18.3 13.8 -0.5 28 8.1 NE 13 20 7 11 1020.1 1020.1 0.0
27/01:00pm 18.0 13.9 -0.3 29 7.9 ENE 11 15 6 8 1020.5 1020.5 0.0
27/12:30pm 18.2 14.6 0.4 30 7.8 ENE 9 13 5 7 1021.1 1021.1 0.0
27/12:00pm 17.6 13.8 -1.1 28 7.9 SW 9 19 5 10 1021.6 1021.6 0.0
27/11:30am 17.4 14.0 -0.8 29 7.7 NW 7 13 4 7 1022.2 1022.2 0.0
27/11:00am 17.3 14.4 1.7 35 6.9 N 6 11 3 6 1022.6 1022.6 0.0
27/10:30am 16.8 13.7 1.3 35 6.8 NW 7 13 4 7 1022.8 1022.8 0.0
27/10:00am 16.2 12.6 0.3 34 6.8 NNW 9 11 5 6 1022.9 1022.9 0.0
27/09:30am 15.1 11.4 2.3 42 5.7 W 11 15 6 8 1022.7 1022.7 0.0
27/09:00am 14.3 10.6 2.2 44 5.3 WNW 11 15 6 8 1022.7 1022.7 0.0
27/08:30am 13.1 9.1 2.9 50 4.5 WNW 13 17 7 9 1022.6 1022.6 0.0
27/08:00am 11.7 7.8 3.2 56 3.7 W 13 19 7 10 1022.5 1022.5 0.0
27/07:30am 10.0 6.1 3.5 64 2.8 W 13 15 7 8 1022.3 1022.3 0.0
27/07:00am 8.9 4.5 2.7 65 2.6 W 15 17 8 9 1022.2 1022.2 0.0
27/06:30am 7.9 4.6 2.4 68 2.3 WSW 9 13 5 7 1022.2 1022.2 0.0
27/06:00am 8.0 5.0 2.3 67 2.4 SW 7 9 4 5 1022.1 1022.1 0.0
27/05:30am 7.4 4.1 2.7 72 2.0 WSW 9 13 5 7 1021.9 1021.9 0.0
27/05:00am 7.0 3.4 2.9 75 1.7 W 11 13 6 7 1021.6 1021.6 0.0
27/04:30am 7.4 3.4 2.7 72 2.0 WSW 13 15 7 8 1021.3 1021.3 0.0
27/04:00am 7.6 4.0 2.7 71 2.0 WSW 11 13 6 7 1021.3 1021.3 0.0
27/03:30am 7.3 3.3 2.6 72 2.0 W 13 15 7 8 1021.3 1021.3 0.0
27/03:00am 8.5 5.2 2.7 67 2.4 W 9 11 5 6 1021.3 1021.3 0.0
27/02:30am 8.8 6.0 3.0 67 2.5 SW 7 11 4 6 1021.4 1021.4 0.0
27/02:00am 8.2 5.3 2.7 68 2.3 SW 7 13 4 7 1021.5 1021.5 0.0
27/01:30am 8.7 5.4 2.7 66 2.5 WSW 9 15 5 8 1021.6 1021.6 0.0
27/01:00am 8.8 6.2 3.0 67 2.5 SW 6 9 3 5 1021.7 1021.7 0.0
27/12:30am 9.3 4.7 3.5 67 2.5 WSW 17 20 9 11 1021.6 1021.6 0.0
27/12:00am 8.8 4.0 4.4 74 1.9 WSW 19 24 10 13 1021.7 1021.7 0.0
 
Date/Time
EST
Temp
°C
App
Temp
°C
Dew
Point
°C
Rel
Hum
%
Delta-T
°C
Wind Press
QNH
hPa
Press
MSL
hPa
Rain since
9am
mm
Dir  Spd
km/h
Gust
km/h
Spd
kts
Gust
kts
26/11:30pm 7.8 5.4 5.1 83 1.2 WSW 7 9 4 5 1021.7 1021.7 0.0
26/11:00pm 7.5 3.9 5.0 84 1.1 WSW 13 15 7 8 1021.6 1021.6 0.0
26/10:30pm 8.6 5.1 5.4 80 1.4 W 13 15 7 8 1021.6 1021.6 0.0
26/10:00pm 8.3 4.4 5.2 81 1.4 W 15 19 8 10 1021.4 1021.4 0.0
26/09:30pm 8.4 4.9 5.3 81 1.4 WSW 13 15 7 8 1021.2 1021.2 0.0
26/09:00pm 8.5 5.4 5.6 82 1.3 WSW 11 15 6 8 1021.0 1021.0 0.0
26/08:30pm 9.2 6.9 5.9 80 1.5 WNW 7 13 4 7 1020.9 1020.9 0.0
26/08:00pm 8.8 5.5 6.3 84 1.1 WSW 13 17 7 9 1020.7 1020.7 0.0
26/07:30pm 9.2 5.5 6.5 83 1.3 WSW 15 19 8 10 1020.6 1020.6 0.0
26/07:00pm 9.9 6.6 6.6 80 1.5 W 13 17 7 9 1020.4 1020.4 0.0
26/06:30pm 12.3 10.6 8.4 77 1.9 S 7 9 4 5 1020.0 1020.0 0.0
26/06:00pm 13.4 11.1 7.6 68 2.8 SSE 9 15 5 8 1019.7 1019.7 0.0
26/05:30pm 14.0 11.0 6.1 59 3.8 SSE 11 17 6 9 1019.3 1019.3 0.0
26/05:00pm 14.6 11.4 6.7 59 3.8 SSE 13 22 7 12 1019.1 1019.1 0.0
26/04:30pm 15.2 11.2 6.7 57 4.1 SSE 17 24 9 13 1018.7 1018.7 0.0
26/04:00pm 15.3 11.8 7.3 59 3.9 SSE 15 24 8 13 1018.4 1018.4 0.0
26/03:30pm 15.9 11.1 4.9 48 5.2 SSE 19 30 10 16 1018.1 1018.1 0.0

Other Formats:

Comma delimited format used in spreadsheet applications
http://www.bom.gov.au/fwo/IDN60801/IDN60801.95748.axf

JavaScript Object Notation format (JSON) in row-major order
http://www.bom.gov.au/fwo/IDN60801/IDN60801.95748.json